sensor_id;sensor_type;location;lat;lon;timestamp;P1;durP1;ratioP1;P2;durP2;ratioP2
75073;SDS011;63652;51.526;5.080;2023-10-13T00:01:33;12.93;;;5.40;;
75073;SDS011;63652;51.526;5.080;2023-10-13T00:03:58;11.02;;;5.32;;
75073;SDS011;63652;51.526;5.080;2023-10-13T00:06:24;10.18;;;5.35;;
75073;SDS011;63652;51.526;5.080;2023-10-13T00:08:52;10.25;;;5.82;;
75073;SDS011;63652;51.526;5.080;2023-10-13T00:11:17;11.57;;;4.90;;
75073;SDS011;63652;51.526;5.080;2023-10-13T00:13:44;13.50;;;5.13;;
75073;SDS011;63652;51.526;5.080;2023-10-13T00:16:16;11.40;;;4.72;;
75073;SDS011;63652;51.526;5.080;2023-10-13T00:18:43;9.52;;;4.70;;
75073;SDS011;63652;51.526;5.080;2023-10-13T00:21:09;10.30;;;5.10;;
75073;SDS011;63652;51.526;5.080;2023-10-13T00:23:42;14.57;;;5.25;;
75073;SDS011;63652;51.526;5.080;2023-10-13T00:26:17;10.73;;;4.38;;
75073;SDS011;63652;51.526;5.080;2023-10-13T00:28:52;11.98;;;4.80;;
75073;SDS011;63652;51.526;5.080;2023-10-13T00:31:37;8.88;;;4.55;;
75073;SDS011;63652;51.526;5.080;2023-10-13T00:34:08;13.98;;;4.43;;
75073;SDS011;63652;51.526;5.080;2023-10-13T00:36:37;12.55;;;4.93;;
75073;SDS011;63652;51.526;5.080;2023-10-13T00:39:22;10.52;;;4.72;;
75073;SDS011;63652;51.526;5.080;2023-10-13T00:41:48;8.77;;;4.18;;
75073;SDS011;63652;51.526;5.080;2023-10-13T00:44:18;10.50;;;4.88;;
75073;SDS011;63652;51.526;5.080;2023-10-13T00:46:53;8.07;;;5.13;;
75073;SDS011;63652;51.526;5.080;2023-10-13T00:49:21;8.27;;;4.13;;
75073;SDS011;63652;51.526;5.080;2023-10-13T00:51:47;11.40;;;4.95;;
75073;SDS011;63652;51.526;5.080;2023-10-13T00:54:14;9.98;;;4.35;;
75073;SDS011;63652;51.526;5.080;2023-10-13T00:56:43;8.75;;;5.00;;
75073;SDS011;63652;51.526;5.080;2023-10-13T00:59:18;9.93;;;4.72;;
75073;SDS011;63652;51.526;5.080;2023-10-13T01:01:48;7.80;;;4.03;;
75073;SDS011;63652;51.526;5.080;2023-10-13T01:04:20;12.43;;;5.28;;
75073;SDS011;63652;51.526;5.080;2023-10-13T01:06:48;9.25;;;4.03;;
75073;SDS011;63652;51.526;5.080;2023-10-13T01:09:14;9.93;;;4.40;;
75073;SDS011;63652;51.526;5.080;2023-10-13T01:11:44;11.43;;;4.85;;
75073;SDS011;63652;51.526;5.080;2023-10-13T01:14:11;9.80;;;4.25;;
75073;SDS011;63652;51.526;5.080;2023-10-13T01:16:39;8.60;;;3.95;;
75073;SDS011;63652;51.526;5.080;2023-10-13T01:19:05;11.82;;;3.90;;
75073;SDS011;63652;51.526;5.080;2023-10-13T01:21:31;9.80;;;4.43;;
75073;SDS011;63652;51.526;5.080;2023-10-13T01:23:58;7.03;;;4.47;;
75073;SDS011;63652;51.526;5.080;2023-10-13T01:26:24;7.85;;;3.50;;
75073;SDS011;63652;51.526;5.080;2023-10-13T01:28:51;8.95;;;4.45;;
75073;SDS011;63652;51.526;5.080;2023-10-13T01:31:19;7.45;;;4.30;;
75073;SDS011;63652;51.526;5.080;2023-10-13T01:34:02;9.75;;;4.18;;
75073;SDS011;63652;51.526;5.080;2023-10-13T01:36:27;8.38;;;3.50;;
75073;SDS011;63652;51.526;5.080;2023-10-13T01:38:53;11.27;;;4.50;;
75073;SDS011;63652;51.526;5.080;2023-10-13T01:41:19;8.57;;;4.13;;
75073;SDS011;63652;51.526;5.080;2023-10-13T01:43:45;9.18;;;4.97;;
75073;SDS011;63652;51.526;5.080;2023-10-13T01:46:11;8.38;;;3.65;;
75073;SDS011;63652;51.526;5.080;2023-10-13T01:48:41;9.10;;;3.80;;
75073;SDS011;63652;51.526;5.080;2023-10-13T01:51:08;11.50;;;3.40;;
75073;SDS011;63652;51.526;5.080;2023-10-13T01:53:38;12.63;;;3.83;;
75073;SDS011;63652;51.526;5.080;2023-10-13T01:56:07;9.98;;;3.78;;
75073;SDS011;63652;51.526;5.080;2023-10-13T01:58:39;8.63;;;3.45;;
75073;SDS011;63652;51.526;5.080;2023-10-13T02:01:08;8.88;;;3.28;;
75073;SDS011;63652;51.526;5.080;2023-10-13T02:03:35;7.40;;;3.83;;
75073;SDS011;63652;51.526;5.080;2023-10-13T02:06:12;11.68;;;3.80;;
75073;SDS011;63652;51.526;5.080;2023-10-13T02:11:08;10.38;;;4.57;;
75073;SDS011;63652;51.526;5.080;2023-10-13T02:13:34;9.43;;;4.45;;
75073;SDS011;63652;51.526;5.080;2023-10-13T02:16:06;8.35;;;4.22;;
75073;SDS011;63652;51.526;5.080;2023-10-13T02:18:32;9.40;;;4.53;;
75073;SDS011;63652;51.526;5.080;2023-10-13T02:21:06;8.93;;;4.30;;
75073;SDS011;63652;51.526;5.080;2023-10-13T02:23:40;9.73;;;4.82;;
75073;SDS011;63652;51.526;5.080;2023-10-13T02:26:11;8.98;;;4.50;;
75073;SDS011;63652;51.526;5.080;2023-10-13T02:28:41;10.32;;;4.85;;
75073;SDS011;63652;51.526;5.080;2023-10-13T02:31:07;14.80;;;5.80;;
75073;SDS011;63652;51.526;5.080;2023-10-13T02:33:33;11.23;;;4.97;;
75073;SDS011;63652;51.526;5.080;2023-10-13T02:36:00;10.13;;;4.93;;
75073;SDS011;63652;51.526;5.080;2023-10-13T02:38:29;12.85;;;5.40;;
75073;SDS011;63652;51.526;5.080;2023-10-13T02:41:10;11.48;;;5.65;;
75073;SDS011;63652;51.526;5.080;2023-10-13T02:43:45;13.30;;;5.65;;
75073;SDS011;63652;51.526;5.080;2023-10-13T02:46:11;12.52;;;5.05;;
75073;SDS011;63652;51.526;5.080;2023-10-13T02:48:36;9.43;;;5.15;;
75073;SDS011;63652;51.526;5.080;2023-10-13T02:51:11;10.60;;;5.28;;
75073;SDS011;63652;51.526;5.080;2023-10-13T02:53:46;11.70;;;4.88;;
75073;SDS011;63652;51.526;5.080;2023-10-13T02:56:15;9.35;;;4.60;;
75073;SDS011;63652;51.526;5.080;2023-10-13T02:58:52;15.20;;;5.82;;
75073;SDS011;63652;51.526;5.080;2023-10-13T03:01:19;13.60;;;5.55;;
75073;SDS011;63652;51.526;5.080;2023-10-13T03:06:19;14.02;;;5.80;;
75073;SDS011;63652;51.526;5.080;2023-10-13T03:09:07;11.90;;;5.70;;
75073;SDS011;63652;51.526;5.080;2023-10-13T03:11:42;13.18;;;5.47;;
75073;SDS011;63652;51.526;5.080;2023-10-13T03:14:12;16.75;;;7.07;;
75073;SDS011;63652;51.526;5.080;2023-10-13T03:16:49;16.65;;;7.15;;
75073;SDS011;63652;51.526;5.080;2023-10-13T03:19:15;18.35;;;7.03;;
75073;SDS011;63652;51.526;5.080;2023-10-13T03:21:44;16.45;;;7.78;;
75073;SDS011;63652;51.526;5.080;2023-10-13T03:24:11;18.80;;;9.18;;
75073;SDS011;63652;51.526;5.080;2023-10-13T03:26:38;18.60;;;9.27;;
75073;SDS011;63652;51.526;5.080;2023-10-13T03:29:09;23.27;;;10.13;;
75073;SDS011;63652;51.526;5.080;2023-10-13T03:31:39;22.98;;;9.77;;
75073;SDS011;63652;51.526;5.080;2023-10-13T03:34:05;25.13;;;10.70;;
75073;SDS011;63652;51.526;5.080;2023-10-13T03:36:34;19.73;;;10.40;;
75073;SDS011;63652;51.526;5.080;2023-10-13T03:39:18;26.13;;;11.30;;
75073;SDS011;63652;51.526;5.080;2023-10-13T03:41:44;21.23;;;10.57;;
75073;SDS011;63652;51.526;5.080;2023-10-13T03:44:10;31.08;;;12.85;;
75073;SDS011;63652;51.526;5.080;2023-10-13T03:46:43;27.63;;;14.02;;
75073;SDS011;63652;51.526;5.080;2023-10-13T03:49:12;26.17;;;13.57;;
75073;SDS011;63652;51.526;5.080;2023-10-13T03:51:39;33.72;;;14.40;;
75073;SDS011;63652;51.526;5.080;2023-10-13T03:54:05;36.63;;;14.88;;
75073;SDS011;63652;51.526;5.080;2023-10-13T03:56:34;31.70;;;14.15;;
75073;SDS011;63652;51.526;5.080;2023-10-13T03:59:06;32.05;;;15.15;;
75073;SDS011;63652;51.526;5.080;2023-10-13T04:01:37;30.63;;;13.43;;
75073;SDS011;63652;51.526;5.080;2023-10-13T04:04:33;28.15;;;13.95;;
75073;SDS011;63652;51.526;5.080;2023-10-13T04:07:13;29.90;;;13.32;;
75073;SDS011;63652;51.526;5.080;2023-10-13T04:09:59;31.42;;;14.25;;
75073;SDS011;63652;51.526;5.080;2023-10-13T04:13:03;28.90;;;12.80;;
75073;SDS011;63652;51.526;5.080;2023-10-13T04:15:42;23.98;;;12.65;;
75073;SDS011;63652;51.526;5.080;2023-10-13T04:18:28;21.13;;;10.30;;
75073;SDS011;63652;51.526;5.080;2023-10-13T04:21:12;21.20;;;10.32;;
75073;SDS011;63652;51.526;5.080;2023-10-13T04:23:55;24.08;;;10.23;;
75073;SDS011;63652;51.526;5.080;2023-10-13T04:26:53;22.40;;;10.68;;
75073;SDS011;63652;51.526;5.080;2023-10-13T04:29:37;24.45;;;11.32;;
75073;SDS011;63652;51.526;5.080;2023-10-13T04:32:21;22.02;;;9.80;;
75073;SDS011;63652;51.526;5.080;2023-10-13T04:34:56;19.88;;;9.90;;
75073;SDS011;63652;51.526;5.080;2023-10-13T04:37:54;17.70;;;9.57;;
75073;SDS011;63652;51.526;5.080;2023-10-13T04:40:26;21.65;;;10.02;;
75073;SDS011;63652;51.526;5.080;2023-10-13T04:42:53;17.88;;;8.57;;
75073;SDS011;63652;51.526;5.080;2023-10-13T04:45:21;17.20;;;8.13;;
75073;SDS011;63652;51.526;5.080;2023-10-13T04:47:56;15.05;;;8.63;;
75073;SDS011;63652;51.526;5.080;2023-10-13T04:50:40;17.92;;;9.07;;
75073;SDS011;63652;51.526;5.080;2023-10-13T04:53:16;13.80;;;8.38;;
75073;SDS011;63652;51.526;5.080;2023-10-13T04:55:57;15.82;;;8.40;;
75073;SDS011;63652;51.526;5.080;2023-10-13T04:58:29;14.93;;;7.20;;
75073;SDS011;63652;51.526;5.080;2023-10-13T05:01:01;12.55;;;8.07;;
75073;SDS011;63652;51.526;5.080;2023-10-13T05:04:02;15.90;;;7.57;;
75073;SDS011;63652;51.526;5.080;2023-10-13T05:06:47;12.95;;;7.18;;
75073;SDS011;63652;51.526;5.080;2023-10-13T05:09:31;18.35;;;8.38;;
75073;SDS011;63652;51.526;5.080;2023-10-13T05:12:14;11.13;;;6.97;;
75073;SDS011;63652;51.526;5.080;2023-10-13T05:14:59;12.98;;;6.47;;
75073;SDS011;63652;51.526;5.080;2023-10-13T05:17:43;15.20;;;7.43;;
75073;SDS011;63652;51.526;5.080;2023-10-13T05:20:26;16.02;;;7.25;;
75073;SDS011;63652;51.526;5.080;2023-10-13T05:23:10;11.13;;;6.35;;
75073;SDS011;63652;51.526;5.080;2023-10-13T05:25:54;15.43;;;7.00;;
75073;SDS011;63652;51.526;5.080;2023-10-13T05:28:58;11.68;;;6.10;;
75073;SDS011;63652;51.526;5.080;2023-10-13T05:31:43;16.52;;;7.55;;
75073;SDS011;63652;51.526;5.080;2023-10-13T05:34:27;10.80;;;5.80;;
75073;SDS011;63652;51.526;5.080;2023-10-13T05:37:11;12.23;;;6.45;;
75073;SDS011;63652;51.526;5.080;2023-10-13T05:39:55;14.45;;;7.05;;
75073;SDS011;63652;51.526;5.080;2023-10-13T05:42:38;12.25;;;6.80;;
75073;SDS011;63652;51.526;5.080;2023-10-13T05:45:22;12.10;;;6.72;;
75073;SDS011;63652;51.526;5.080;2023-10-13T05:48:01;12.95;;;6.90;;
75073;SDS011;63652;51.526;5.080;2023-10-13T05:50:36;14.40;;;6.60;;
75073;SDS011;63652;51.526;5.080;2023-10-13T05:53:20;15.20;;;6.80;;
75073;SDS011;63652;51.526;5.080;2023-10-13T05:56:04;12.02;;;6.20;;
75073;SDS011;63652;51.526;5.080;2023-10-13T05:58:48;13.95;;;6.95;;
75073;SDS011;63652;51.526;5.080;2023-10-13T06:01:32;15.32;;;6.53;;
75073;SDS011;63652;51.526;5.080;2023-10-13T06:04:16;14.27;;;6.60;;
75073;SDS011;63652;51.526;5.080;2023-10-13T06:07:00;15.50;;;6.53;;
75073;SDS011;63652;51.526;5.080;2023-10-13T06:09:45;16.88;;;7.10;;
75073;SDS011;63652;51.526;5.080;2023-10-13T06:12:28;15.25;;;7.28;;
75073;SDS011;63652;51.526;5.080;2023-10-13T06:15:12;13.07;;;6.53;;
75073;SDS011;63652;51.526;5.080;2023-10-13T06:17:56;12.30;;;6.63;;
75073;SDS011;63652;51.526;5.080;2023-10-13T06:20:40;17.90;;;7.63;;
75073;SDS011;63652;51.526;5.080;2023-10-13T06:23:24;16.05;;;6.68;;
75073;SDS011;63652;51.526;5.080;2023-10-13T06:26:08;12.00;;;6.38;;
75073;SDS011;63652;51.526;5.080;2023-10-13T06:28:53;18.05;;;7.30;;
75073;SDS011;63652;51.526;5.080;2023-10-13T06:31:18;12.52;;;7.07;;
75073;SDS011;63652;51.526;5.080;2023-10-13T06:33:46;14.27;;;6.90;;
75073;SDS011;63652;51.526;5.080;2023-10-13T06:36:12;14.90;;;6.63;;
75073;SDS011;63652;51.526;5.080;2023-10-13T06:38:38;13.68;;;5.75;;
75073;SDS011;63652;51.526;5.080;2023-10-13T06:41:06;14.25;;;6.90;;
75073;SDS011;63652;51.526;5.080;2023-10-13T06:43:35;14.43;;;7.00;;
75073;SDS011;63652;51.526;5.080;2023-10-13T06:46:24;19.00;;;6.18;;
75073;SDS011;63652;51.526;5.080;2023-10-13T06:48:53;15.85;;;6.82;;
75073;SDS011;63652;51.526;5.080;2023-10-13T06:51:19;12.98;;;6.07;;
75073;SDS011;63652;51.526;5.080;2023-10-13T06:53:50;13.63;;;6.25;;
75073;SDS011;63652;51.526;5.080;2023-10-13T06:56:21;14.38;;;6.55;;
75073;SDS011;63652;51.526;5.080;2023-10-13T06:58:53;17.73;;;6.30;;
75073;SDS011;63652;51.526;5.080;2023-10-13T07:01:27;17.30;;;6.88;;
75073;SDS011;63652;51.526;5.080;2023-10-13T07:03:52;15.60;;;6.00;;
75073;SDS011;63652;51.526;5.080;2023-10-13T07:06:21;13.77;;;5.53;;
75073;SDS011;63652;51.526;5.080;2023-10-13T07:08:47;15.20;;;5.90;;
75073;SDS011;63652;51.526;5.080;2023-10-13T07:11:25;15.77;;;6.57;;
75073;SDS011;63652;51.526;5.080;2023-10-13T07:14:03;16.50;;;6.40;;
75073;SDS011;63652;51.526;5.080;2023-10-13T07:16:42;15.43;;;6.60;;
75073;SDS011;63652;51.526;5.080;2023-10-13T07:19:11;16.15;;;6.70;;
75073;SDS011;63652;51.526;5.080;2023-10-13T07:21:42;19.90;;;7.13;;
75073;SDS011;63652;51.526;5.080;2023-10-13T07:24:11;19.00;;;5.60;;
75073;SDS011;63652;51.526;5.080;2023-10-13T07:26:37;18.52;;;7.13;;
75073;SDS011;63652;51.526;5.080;2023-10-13T07:29:10;16.45;;;5.40;;
75073;SDS011;63652;51.526;5.080;2023-10-13T07:31:36;12.50;;;6.15;;
75073;SDS011;63652;51.526;5.080;2023-10-13T07:34:03;13.65;;;5.65;;
75073;SDS011;63652;51.526;5.080;2023-10-13T07:36:38;14.55;;;6.18;;
75073;SDS011;63652;51.526;5.080;2023-10-13T07:39:05;12.20;;;4.75;;
75073;SDS011;63652;51.526;5.080;2023-10-13T07:41:50;12.65;;;5.10;;
75073;SDS011;63652;51.526;5.080;2023-10-13T07:44:19;15.13;;;5.85;;
75073;SDS011;63652;51.526;5.080;2023-10-13T07:46:53;11.35;;;5.05;;
75073;SDS011;63652;51.526;5.080;2023-10-13T07:49:32;13.40;;;5.20;;
75073;SDS011;63652;51.526;5.080;2023-10-13T07:52:02;15.18;;;4.53;;
75073;SDS011;63652;51.526;5.080;2023-10-13T07:54:52;11.52;;;4.82;;
75073;SDS011;63652;51.526;5.080;2023-10-13T07:57:35;13.38;;;5.40;;
75073;SDS011;63652;51.526;5.080;2023-10-13T08:00:01;15.38;;;4.40;;
75073;SDS011;63652;51.526;5.080;2023-10-13T08:02:33;11.43;;;4.82;;
75073;SDS011;63652;51.526;5.080;2023-10-13T08:05:15;12.57;;;4.28;;
75073;SDS011;63652;51.526;5.080;2023-10-13T08:08:04;14.93;;;4.93;;
75073;SDS011;63652;51.526;5.080;2023-10-13T08:10:39;10.98;;;5.30;;
75073;SDS011;63652;51.526;5.080;2023-10-13T08:13:07;16.60;;;4.97;;
75073;SDS011;63652;51.526;5.080;2023-10-13T08:15:37;20.15;;;4.60;;
75073;SDS011;63652;51.526;5.080;2023-10-13T08:18:06;12.82;;;4.22;;
75073;SDS011;63652;51.526;5.080;2023-10-13T08:20:42;13.30;;;4.85;;
75073;SDS011;63652;51.526;5.080;2023-10-13T08:23:08;16.35;;;5.07;;
75073;SDS011;63652;51.526;5.080;2023-10-13T08:25:40;12.75;;;4.93;;
75073;SDS011;63652;51.526;5.080;2023-10-13T08:28:31;14.70;;;4.40;;
75073;SDS011;63652;51.526;5.080;2023-10-13T08:31:04;12.43;;;4.22;;
75073;SDS011;63652;51.526;5.080;2023-10-13T08:33:46;10.68;;;4.15;;
75073;SDS011;63652;51.526;5.080;2023-10-13T08:36:12;14.25;;;5.28;;
75073;SDS011;63652;51.526;5.080;2023-10-13T08:38:53;12.18;;;4.90;;
75073;SDS011;63652;51.526;5.080;2023-10-13T08:41:20;9.48;;;4.30;;
75073;SDS011;63652;51.526;5.080;2023-10-13T08:43:52;10.00;;;3.80;;
75073;SDS011;63652;51.526;5.080;2023-10-13T08:46:20;13.18;;;4.72;;
75073;SDS011;63652;51.526;5.080;2023-10-13T08:49:15;11.25;;;4.15;;
75073;SDS011;63652;51.526;5.080;2023-10-13T08:51:41;12.45;;;4.53;;
75073;SDS011;63652;51.526;5.080;2023-10-13T08:54:15;11.65;;;3.90;;
75073;SDS011;63652;51.526;5.080;2023-10-13T08:56:47;12.55;;;4.50;;
75073;SDS011;63652;51.526;5.080;2023-10-13T08:59:21;8.10;;;4.05;;
75073;SDS011;63652;51.526;5.080;2023-10-13T09:01:58;9.18;;;4.82;;
75073;SDS011;63652;51.526;5.080;2023-10-13T09:04:41;16.92;;;6.20;;
75073;SDS011;63652;51.526;5.080;2023-10-13T09:07:09;14.85;;;4.82;;
75073;SDS011;63652;51.526;5.080;2023-10-13T09:12:11;11.57;;;4.47;;
75073;SDS011;63652;51.526;5.080;2023-10-13T09:14:39;11.25;;;4.47;;
75073;SDS011;63652;51.526;5.080;2023-10-13T09:17:13;10.75;;;4.95;;
75073;SDS011;63652;51.526;5.080;2023-10-13T09:22:28;13.55;;;5.00;;
75073;SDS011;63652;51.526;5.080;2023-10-13T09:25:03;10.07;;;4.10;;
75073;SDS011;63652;51.526;5.080;2023-10-13T09:27:38;9.57;;;4.32;;
75073;SDS011;63652;51.526;5.080;2023-10-13T09:30:04;10.35;;;3.75;;
75073;SDS011;63652;51.526;5.080;2023-10-13T09:32:59;11.25;;;3.90;;
75073;SDS011;63652;51.526;5.080;2023-10-13T09:35:30;11.85;;;3.70;;
75073;SDS011;63652;51.526;5.080;2023-10-13T09:37:59;12.32;;;4.68;;
75073;SDS011;63652;51.526;5.080;2023-10-13T09:40:27;14.57;;;4.55;;
75073;SDS011;63652;51.526;5.080;2023-10-13T09:43:11;9.13;;;4.43;;
75073;SDS011;63652;51.526;5.080;2023-10-13T09:45:40;10.32;;;4.28;;
75073;SDS011;63652;51.526;5.080;2023-10-13T09:48:12;11.63;;;4.05;;
75073;SDS011;63652;51.526;5.080;2023-10-13T09:50:47;12.02;;;3.47;;
75073;SDS011;63652;51.526;5.080;2023-10-13T09:53:14;9.50;;;5.18;;
75073;SDS011;63652;51.526;5.080;2023-10-13T09:58:38;10.50;;;3.90;;
75073;SDS011;63652;51.526;5.080;2023-10-13T10:01:12;13.07;;;4.40;;
75073;SDS011;63652;51.526;5.080;2023-10-13T10:03:48;15.50;;;4.97;;
75073;SDS011;63652;51.526;5.080;2023-10-13T10:06:21;7.15;;;3.85;;
75073;SDS011;63652;51.526;5.080;2023-10-13T10:08:53;13.63;;;4.22;;
75073;SDS011;63652;51.526;5.080;2023-10-13T10:14:13;11.80;;;4.68;;
75073;SDS011;63652;51.526;5.080;2023-10-13T10:19:16;16.08;;;4.20;;
75073;SDS011;63652;51.526;5.080;2023-10-13T10:21:43;8.20;;;3.72;;
75073;SDS011;63652;51.526;5.080;2023-10-13T10:24:15;20.95;;;5.75;;
75073;SDS011;63652;51.526;5.080;2023-10-13T10:26:56;11.23;;;4.22;;
75073;SDS011;63652;51.526;5.080;2023-10-13T10:29:21;10.65;;;3.85;;
75073;SDS011;63652;51.526;5.080;2023-10-13T10:31:47;14.73;;;4.55;;
75073;SDS011;63652;51.526;5.080;2023-10-13T10:34:16;12.95;;;4.53;;
75073;SDS011;63652;51.526;5.080;2023-10-13T10:36:53;13.45;;;5.47;;
75073;SDS011;63652;51.526;5.080;2023-10-13T10:39:19;12.95;;;4.10;;
75073;SDS011;63652;51.526;5.080;2023-10-13T10:41:46;12.25;;;4.25;;
75073;SDS011;63652;51.526;5.080;2023-10-13T10:44:17;11.65;;;4.20;;
75073;SDS011;63652;51.526;5.080;2023-10-13T10:47:20;9.32;;;3.70;;
75073;SDS011;63652;51.526;5.080;2023-10-13T10:49:55;11.90;;;4.38;;
75073;SDS011;63652;51.526;5.080;2023-10-13T10:52:21;18.00;;;4.43;;
75073;SDS011;63652;51.526;5.080;2023-10-13T10:54:47;15.52;;;4.68;;
75073;SDS011;63652;51.526;5.080;2023-10-13T10:57:17;11.15;;;4.95;;
75073;SDS011;63652;51.526;5.080;2023-10-13T10:59:43;14.00;;;3.88;;
75073;SDS011;63652;51.526;5.080;2023-10-13T11:02:09;8.85;;;4.13;;
75073;SDS011;63652;51.526;5.080;2023-10-13T11:04:40;13.27;;;4.75;;
75073;SDS011;63652;51.526;5.080;2023-10-13T11:07:20;11.32;;;4.63;;
75073;SDS011;63652;51.526;5.080;2023-10-13T11:09:46;8.73;;;4.03;;
75073;SDS011;63652;51.526;5.080;2023-10-13T11:12:13;13.02;;;4.68;;
75073;SDS011;63652;51.526;5.080;2023-10-13T11:14:48;10.73;;;3.90;;
75073;SDS011;63652;51.526;5.080;2023-10-13T11:17:22;10.52;;;3.92;;
75073;SDS011;63652;51.526;5.080;2023-10-13T11:20:12;10.23;;;4.70;;
75073;SDS011;63652;51.526;5.080;2023-10-13T11:22:42;13.45;;;4.80;;
75073;SDS011;63652;51.526;5.080;2023-10-13T11:25:19;9.02;;;4.60;;
75073;SDS011;63652;51.526;5.080;2023-10-13T11:27:55;11.10;;;4.30;;
75073;SDS011;63652;51.526;5.080;2023-10-13T11:30:23;12.02;;;4.47;;
75073;SDS011;63652;51.526;5.080;2023-10-13T11:35:38;8.48;;;3.90;;
75073;SDS011;63652;51.526;5.080;2023-10-13T11:38:16;10.50;;;3.65;;
75073;SDS011;63652;51.526;5.080;2023-10-13T11:40:51;9.18;;;4.13;;
75073;SDS011;63652;51.526;5.080;2023-10-13T11:43:37;9.90;;;3.65;;
75073;SDS011;63652;51.526;5.080;2023-10-13T11:46:13;13.30;;;3.85;;
75073;SDS011;63652;51.526;5.080;2023-10-13T11:49:04;11.30;;;3.88;;
75073;SDS011;63652;51.526;5.080;2023-10-13T11:51:40;11.90;;;4.35;;
75073;SDS011;63652;51.526;5.080;2023-10-13T11:54:13;11.35;;;4.95;;
75073;SDS011;63652;51.526;5.080;2023-10-13T11:56:38;12.98;;;4.78;;
75073;SDS011;63652;51.526;5.080;2023-10-13T11:59:04;11.50;;;4.75;;
75073;SDS011;63652;51.526;5.080;2023-10-13T12:01:31;13.38;;;4.32;;
75073;SDS011;63652;51.526;5.080;2023-10-13T12:04:15;10.35;;;4.72;;
75073;SDS011;63652;51.526;5.080;2023-10-13T12:06:58;9.13;;;4.65;;
75073;SDS011;63652;51.526;5.080;2023-10-13T12:09:45;9.85;;;4.43;;
75073;SDS011;63652;51.526;5.080;2023-10-13T12:12:21;17.60;;;5.30;;
75073;SDS011;63652;51.526;5.080;2023-10-13T12:14:49;13.48;;;4.30;;
75073;SDS011;63652;51.526;5.080;2023-10-13T12:17:18;10.10;;;3.90;;
75073;SDS011;63652;51.526;5.080;2023-10-13T12:19:53;12.80;;;4.35;;
75073;SDS011;63652;51.526;5.080;2023-10-13T12:22:19;12.25;;;4.32;;
75073;SDS011;63652;51.526;5.080;2023-10-13T12:24:52;9.02;;;4.63;;
75073;SDS011;63652;51.526;5.080;2023-10-13T12:27:20;11.40;;;4.53;;
75073;SDS011;63652;51.526;5.080;2023-10-13T12:29:52;12.38;;;3.97;;
75073;SDS011;63652;51.526;5.080;2023-10-13T12:32:18;11.68;;;4.70;;
75073;SDS011;63652;51.526;5.080;2023-10-13T12:34:50;8.02;;;4.15;;
75073;SDS011;63652;51.526;5.080;2023-10-13T12:37:22;11.57;;;4.88;;
75073;SDS011;63652;51.526;5.080;2023-10-13T12:40:09;12.93;;;4.95;;
75073;SDS011;63652;51.526;5.080;2023-10-13T12:42:58;11.00;;;4.15;;
75073;SDS011;63652;51.526;5.080;2023-10-13T12:45:42;14.20;;;5.07;;
75073;SDS011;63652;51.526;5.080;2023-10-13T12:48:27;10.48;;;4.15;;
75073;SDS011;63652;51.526;5.080;2023-10-13T12:51:15;9.27;;;3.67;;
75073;SDS011;63652;51.526;5.080;2023-10-13T12:54:05;13.23;;;3.47;;
75073;SDS011;63652;51.526;5.080;2023-10-13T12:56:39;9.38;;;3.42;;
75073;SDS011;63652;51.526;5.080;2023-10-13T12:59:07;10.10;;;3.20;;
75073;SDS011;63652;51.526;5.080;2023-10-13T13:01:38;9.52;;;3.65;;
75073;SDS011;63652;51.526;5.080;2023-10-13T13:04:07;16.15;;;3.80;;
75073;SDS011;63652;51.526;5.080;2023-10-13T13:06:37;9.45;;;3.45;;
75073;SDS011;63652;51.526;5.080;2023-10-13T13:09:02;13.00;;;4.07;;
75073;SDS011;63652;51.526;5.080;2023-10-13T13:11:27;10.73;;;3.63;;
75073;SDS011;63652;51.526;5.080;2023-10-13T13:13:56;11.50;;;3.28;;
75073;SDS011;63652;51.526;5.080;2023-10-13T13:16:22;12.35;;;4.00;;
75073;SDS011;63652;51.526;5.080;2023-10-13T13:18:50;10.35;;;4.57;;
75073;SDS011;63652;51.526;5.080;2023-10-13T13:21:15;15.20;;;4.80;;
75073;SDS011;63652;51.526;5.080;2023-10-13T13:23:49;10.82;;;3.50;;
75073;SDS011;63652;51.526;5.080;2023-10-13T13:26:15;14.15;;;4.53;;
75073;SDS011;63652;51.526;5.080;2023-10-13T13:28:44;10.05;;;3.17;;
75073;SDS011;63652;51.526;5.080;2023-10-13T13:31:10;10.48;;;2.97;;
75073;SDS011;63652;51.526;5.080;2023-10-13T13:33:37;13.75;;;4.75;;
75073;SDS011;63652;51.526;5.080;2023-10-13T13:36:07;12.57;;;3.45;;
75073;SDS011;63652;51.526;5.080;2023-10-13T13:38:32;12.63;;;4.82;;
75073;SDS011;63652;51.526;5.080;2023-10-13T13:40:59;9.25;;;3.28;;
75073;SDS011;63652;51.526;5.080;2023-10-13T13:43:26;10.98;;;4.25;;
75073;SDS011;63652;51.526;5.080;2023-10-13T13:46:15;7.80;;;3.78;;
75073;SDS011;63652;51.526;5.080;2023-10-13T13:48:42;6.63;;;3.25;;
75073;SDS011;63652;51.526;5.080;2023-10-13T13:51:08;11.00;;;2.97;;
75073;SDS011;63652;51.526;5.080;2023-10-13T13:53:43;11.13;;;3.40;;
75073;SDS011;63652;51.526;5.080;2023-10-13T13:56:13;14.73;;;4.53;;
75073;SDS011;63652;51.526;5.080;2023-10-13T13:58:47;10.00;;;3.72;;
75073;SDS011;63652;51.526;5.080;2023-10-13T14:01:15;10.70;;;3.35;;
75073;SDS011;63652;51.526;5.080;2023-10-13T14:03:43;13.15;;;3.20;;
75073;SDS011;63652;51.526;5.080;2023-10-13T14:06:14;6.80;;;2.75;;
75073;SDS011;63652;51.526;5.080;2023-10-13T14:08:48;9.40;;;3.50;;
75073;SDS011;63652;51.526;5.080;2023-10-13T14:11:16;7.55;;;2.95;;
75073;SDS011;63652;51.526;5.080;2023-10-13T14:14:02;12.80;;;3.67;;
75073;SDS011;63652;51.526;5.080;2023-10-13T14:16:29;9.57;;;3.42;;
75073;SDS011;63652;51.526;5.080;2023-10-13T14:18:58;10.35;;;3.45;;
75073;SDS011;63652;51.526;5.080;2023-10-13T14:21:23;9.52;;;3.97;;
75073;SDS011;63652;51.526;5.080;2023-10-13T14:23:50;12.52;;;3.38;;
75073;SDS011;63652;51.526;5.080;2023-10-13T14:26:19;10.55;;;3.30;;
75073;SDS011;63652;51.526;5.080;2023-10-13T14:28:53;7.63;;;3.35;;
75073;SDS011;63652;51.526;5.080;2023-10-13T14:31:33;8.40;;;3.17;;
75073;SDS011;63652;51.526;5.080;2023-10-13T14:34:01;8.93;;;4.15;;
75073;SDS011;63652;51.526;5.080;2023-10-13T14:36:26;13.98;;;3.95;;
75073;SDS011;63652;51.526;5.080;2023-10-13T14:38:59;9.38;;;3.63;;
75073;SDS011;63652;51.526;5.080;2023-10-13T14:41:25;9.02;;;3.60;;
75073;SDS011;63652;51.526;5.080;2023-10-13T14:43:51;8.77;;;3.20;;
75073;SDS011;63652;51.526;5.080;2023-10-13T14:46:20;8.32;;;2.88;;
75073;SDS011;63652;51.526;5.080;2023-10-13T14:48:51;9.80;;;3.80;;
75073;SDS011;63652;51.526;5.080;2023-10-13T14:51:17;14.25;;;3.80;;
75073;SDS011;63652;51.526;5.080;2023-10-13T14:53:43;10.98;;;3.67;;
75073;SDS011;63652;51.526;5.080;2023-10-13T14:56:10;10.73;;;3.88;;
75073;SDS011;63652;51.526;5.080;2023-10-13T14:58:36;8.80;;;3.13;;
75073;SDS011;63652;51.526;5.080;2023-10-13T15:01:10;8.75;;;3.50;;
75073;SDS011;63652;51.526;5.080;2023-10-13T15:03:50;12.65;;;3.72;;
75073;SDS011;63652;51.526;5.080;2023-10-13T15:06:23;7.88;;;3.42;;
75073;SDS011;63652;51.526;5.080;2023-10-13T15:11:15;8.32;;;3.83;;
75073;SDS011;63652;51.526;5.080;2023-10-13T15:13:43;12.48;;;4.28;;
75073;SDS011;63652;51.526;5.080;2023-10-13T15:16:15;12.27;;;3.80;;
75073;SDS011;63652;51.526;5.080;2023-10-13T15:18:42;10.40;;;3.45;;
75073;SDS011;63652;51.526;5.080;2023-10-13T15:21:11;6.47;;;3.20;;
75073;SDS011;63652;51.526;5.080;2023-10-13T15:23:44;6.72;;;3.67;;
75073;SDS011;63652;51.526;5.080;2023-10-13T15:26:09;15.25;;;3.90;;
75073;SDS011;63652;51.526;5.080;2023-10-13T15:28:37;7.80;;;3.22;;
75073;SDS011;63652;51.526;5.080;2023-10-13T15:31:07;9.15;;;3.10;;
75073;SDS011;63652;51.526;5.080;2023-10-13T15:33:49;11.30;;;3.92;;
75073;SDS011;63652;51.526;5.080;2023-10-13T15:36:17;14.05;;;4.30;;